Terminal Aerodrome Forecast
Issued by NWS

Current Version | Previous Version | Text Only | Print | Product List | Glossary On
Versions: 1 2 3 4 5 6 7 8 9 10 11 12 13 14 15
000
FTUS44 KBMX 172300
TAFTOI
TAF
KTOI 172320Z 1800/1824 32006KT P6SM SCT250
     FM180300 00000KT P6SM BKN250
     FM181500 36004KT P6SM OVC100=

USA.gov is the U.S. government's official web portal to all federal, state and local government web resources and services.